Time;durP1;ratioP1;P1;durP2;ratioP2;P2;SDS_P1;SDS_P2;PMS_P1;PMS_P2;Temp;Humidity;BMP_temperature;BMP_pressure;BME280_temperature;BME280_humidity;BME280_pressure;Samples;Min_cycle;Max_cycle;Signal;HPM_P1;HPM_P2
2022/07/09 00:02:05;;;;;;;6.63;3.90;;;14.00;99.90;;;;;;5014281;28;20216;-91
2022/07/09 00:04:31;;;;;;;7.50;4.23;;;13.90;99.90;;;;;;5014314;28;20193;-92
2022/07/09 00:06:58;;;;;;;4.83;3.43;;;13.80;99.90;;;;;;5014498;28;20221;-89
2022/07/09 00:09:24;;;;;;;5.77;3.80;;;13.80;99.90;;;;;;5014790;28;20178;-90
2022/07/09 00:11:52;;;;;;;5.87;3.67;;;13.80;99.90;;;;;;5014808;28;20228;-89
2022/07/09 00:14:18;;;;;;;8.37;4.00;;;13.80;99.90;;;;;;5014213;28;20262;-89
2022/07/09 00:16:44;;;;;;;6.73;3.87;;;13.90;99.90;;;;;;5014415;28;20185;-90
2022/07/09 00:19:10;;;;;;;4.27;3.20;;;13.80;99.90;;;;;;5014584;28;20192;-90
2022/07/09 00:21:36;;;;;;;7.33;3.80;;;13.80;99.90;;;;;;4998336;28;20212;-89
2022/07/09 00:24:02;;;;;;;5.90;3.90;;;13.90;99.90;;;;;;4998004;28;20271;-90
2022/07/09 00:26:28;;;;;;;7.90;3.67;;;13.90;99.90;;;;;;5014648;28;20287;-89
2022/07/09 00:28:54;;;;;;;6.10;3.70;;;13.80;99.90;;;;;;4998048;28;20266;-89
2022/07/09 00:31:19;;;;;;;7.23;3.97;;;13.80;99.90;;;;;;4997781;28;20198;-90
2022/07/09 00:33:45;;;;;;;4.20;3.33;;;13.80;99.90;;;;;;4998103;28;20221;-89
2022/07/09 00:36:11;;;;;;;4.23;3.57;;;13.80;99.90;;;;;;5018577;28;20181;-90
2022/07/09 00:38:42;;;;;;;4.57;3.90;;;13.90;99.90;;;;;;5014754;28;20201;-90
2022/07/09 00:41:08;;;;;;;4.00;3.10;;;13.80;99.90;;;;;;5014016;28;20244;-90
2022/07/09 00:43:34;;;;;;;6.77;4.07;;;13.80;99.90;;;;;;5013933;28;20174;-89
2022/07/09 00:45:59;;;;;;;4.30;3.80;;;13.80;99.90;;;;;;4997427;28;20253;-90
2022/07/09 00:48:25;;;;;;;6.60;4.13;;;13.80;99.90;;;;;;4997449;28;20214;-89
2022/07/09 00:50:51;;;;;;;5.80;4.50;;;13.70;99.90;;;;;;4997583;28;20201;-89
2022/07/09 00:53:24;;;;;;;6.40;4.73;;;13.70;99.90;;;;;;4997687;28;20276;-89
2022/07/09 00:55:51;;;;;;;9.17;4.30;;;13.60;99.90;;;;;;5013712;28;20692;-90
2022/07/09 00:58:18;;;;;;;3.83;3.40;;;13.50;99.90;;;;;;5013291;28;20194;-89
2022/07/09 01:00:45;;;;;;;6.67;4.30;;;13.60;99.90;;;;;;5013459;28;20241;-89
2022/07/09 01:03:11;;;;;;;4.17;3.40;;;13.50;99.90;;;;;;5013159;28;20184;-90
2022/07/09 01:05:38;;;;;;;3.43;2.73;;;13.40;99.90;;;;;;5013012;28;20199;-89
2022/07/09 01:08:08;;;;;;;6.63;3.50;;;13.40;99.90;;;;;;5013532;28;20220;-90
2022/07/09 01:10:35;;;;;;;4.60;3.43;;;13.40;99.90;;;;;;4997430;28;20239;-89
2022/07/09 01:13:03;;;;;;;4.43;2.90;;;13.30;99.90;;;;;;4996784;28;20230;-90
2022/07/09 01:15:30;;;;;;;6.33;3.63;;;13.30;99.90;;;;;;5013509;28;20187;-89
2022/07/09 01:17:57;;;;;;;4.60;3.70;;;13.30;99.90;;;;;;5013372;28;20222;-89
2022/07/09 01:20:28;;;;;;;4.60;3.57;;;13.30;99.90;;;;;;4997272;28;20219;-89
2022/07/09 01:22:55;;;;;;;4.30;3.10;;;13.20;99.90;;;;;;4997234;28;20188;-89
2022/07/09 01:25:34;;;;;;;3.83;3.10;;;13.20;99.90;;;;;;4997205;28;20183;-89
2022/07/09 01:28:00;;;;;;;4.53;3.53;;;13.20;99.90;;;;;;5013253;28;20292;-89
2022/07/09 01:30:27;;;;;;;5.00;2.83;;;13.20;99.90;;;;;;5014011;28;20267;-89
2022/07/09 01:32:54;;;;;;;3.33;3.03;;;13.20;99.90;;;;;;4997515;28;20185;-89
2022/07/09 01:35:21;;;;;;;3.77;3.00;;;13.20;99.90;;;;;;5013587;28;20190;-89
2022/07/09 01:37:47;;;;;;;6.07;3.20;;;13.20;99.90;;;;;;5013799;28;20190;-90
2022/07/09 01:40:14;;;;;;;4.77;3.00;;;13.20;99.90;;;;;;4997837;28;20179;-91
2022/07/09 01:42:40;;;;;;;6.97;3.53;;;13.10;99.90;;;;;;4998050;28;20181;-89
2022/07/09 01:45:06;;;;;;;4.57;3.67;;;13.10;99.90;;;;;;5014613;28;20175;-90
2022/07/09 01:47:35;;;;;;;5.33;3.33;;;13.10;99.90;;;;;;5014802;28;20237;-89
2022/07/09 01:50:02;;;;;;;6.87;3.40;;;13.10;99.90;;;;;;5014481;28;20180;-89
2022/07/09 01:52:29;;;;;;;3.70;3.10;;;13.10;99.90;;;;;;5012679;28;20211;-89
2022/07/09 01:54:55;;;;;;;4.30;3.50;;;13.10;99.90;;;;;;4996615;28;20195;-90
2022/07/09 01:57:21;;;;;;;4.73;3.33;;;13.10;99.90;;;;;;4996829;28;20219;-89
2022/07/09 01:59:47;;;;;;;6.10;3.20;;;13.10;99.90;;;;;;4996611;28;20191;-89
2022/07/09 02:02:13;;;;;;;4.73;3.07;;;13.10;99.90;;;;;;5013124;28;20207;-89
2022/07/09 02:04:39;;;;;;;4.03;3.07;;;13.10;99.90;;;;;;5013026;28;20209;-90
2022/07/09 02:07:05;;;;;;;3.50;3.13;;;13.20;99.90;;;;;;5012819;28;20272;-89
2022/07/09 02:09:31;;;;;;;4.70;3.20;;;13.20;99.90;;;;;;5013145;28;20186;-89
2022/07/09 02:11:57;;;;;;;3.37;3.07;;;13.20;99.90;;;;;;5013344;28;20200;-89
2022/07/09 02:14:22;;;;;;;5.83;3.50;;;13.10;99.90;;;;;;4997323;28;20219;-89
2022/07/09 02:16:48;;;;;;;5.77;3.23;;;13.00;99.90;;;;;;4999651;28;20236;-89
2022/07/09 02:19:14;;;;;;;4.93;3.43;;;13.00;99.90;;;;;;5003400;28;20196;-89
2022/07/09 02:21:40;;;;;;;5.10;3.33;;;13.00;99.90;;;;;;5001309;28;20237;-91
2022/07/09 02:24:07;;;;;;;5.20;3.80;;;13.00;99.90;;;;;;5016738;28;20222;-89
2022/07/09 02:26:33;;;;;;;4.40;3.10;;;13.00;99.90;;;;;;5016304;28;20197;-89
2022/07/09 02:28:59;;;;;;;5.20;3.40;;;12.90;99.90;;;;;;5000786;28;20253;-89
2022/07/09 02:31:28;;;;;;;4.27;3.30;;;12.90;99.90;;;;;;5016428;28;20639;-89
2022/07/09 02:33:54;;;;;;;5.60;3.40;;;12.90;99.90;;;;;;5000144;28;20672;-89
2022/07/09 02:36:20;;;;;;;5.20;3.50;;;12.80;99.90;;;;;;5016366;28;20179;-89
2022/07/09 02:38:46;;;;;;;3.87;3.50;;;12.80;99.90;;;;;;5016582;28;20172;-90
2022/07/09 02:41:12;;;;;;;4.07;3.20;;;12.80;99.90;;;;;;5016052;28;20201;-89
2022/07/09 02:43:38;;;;;;;5.13;3.90;;;12.80;99.90;;;;;;5000031;28;20182;-89
2022/07/09 02:46:04;;;;;;;5.40;3.30;;;12.80;99.90;;;;;;4999765;28;20207;-90
2022/07/09 02:48:31;;;;;;;5.03;3.47;;;12.80;99.90;;;;;;5016005;28;20304;-89
2022/07/09 02:50:57;;;;;;;3.70;3.23;;;12.80;99.90;;;;;;5016281;28;20203;-89
2022/07/09 02:53:23;;;;;;;4.23;3.30;;;12.70;99.90;;;;;;5000043;28;20191;-89
2022/07/09 02:55:49;;;;;;;4.83;3.47;;;12.70;99.90;;;;;;4999382;28;20190;-89
2022/07/09 02:58:14;;;;;;;4.73;3.30;;;12.70;99.90;;;;;;5015966;28;20677;-89
2022/07/09 03:00:40;;;;;;;6.63;3.23;;;12.60;99.90;;;;;;5015680;28;20215;-89
2022/07/09 03:03:07;;;;;;;5.87;3.30;;;12.60;99.90;;;;;;4999677;28;20247;-90
2022/07/09 03:05:33;;;;;;;5.70;3.30;;;12.60;99.90;;;;;;4999398;28;20188;-89
2022/07/09 03:08:00;;;;;;;4.67;3.40;;;12.60;99.90;;;;;;5015726;28;20241;-89
2022/07/09 03:10:26;;;;;;;4.23;3.47;;;12.50;99.90;;;;;;4998839;28;20230;-90
2022/07/09 03:12:52;;;;;;;3.90;3.33;;;12.50;99.90;;;;;;5016623;28;20185;-89
2022/07/09 03:15:18;;;;;;;3.10;2.90;;;12.50;99.90;;;;;;5016206;28;20183;-89
2022/07/09 03:17:44;;;;;;;5.73;3.27;;;12.50;99.90;;;;;;4999795;28;20194;-89
2022/07/09 03:20:11;;;;;;;4.13;3.53;;;12.40;99.90;;;;;;4998860;28;20267;-89
2022/07/09 03:22:37;;;;;;;3.70;3.37;;;12.30;99.90;;;;;;4999023;28;20207;-90
2022/07/09 03:25:04;;;;;;;4.87;3.50;;;12.30;99.90;;;;;;5015275;28;20281;-89
2022/07/09 03:27:31;;;;;;;5.60;3.63;;;12.20;99.90;;;;;;5014523;28;20207;-89
2022/07/09 03:29:57;;;;;;;4.57;3.63;;;12.20;99.90;;;;;;5015473;28;20224;-89
2022/07/09 03:32:23;;;;;;;4.03;3.40;;;12.20;99.90;;;;;;5015169;28;20199;-89
2022/07/09 03:34:49;;;;;;;9.80;3.93;;;12.20;99.90;;;;;;4998640;28;20183;-89
2022/07/09 03:37:15;;;;;;;5.63;3.60;;;12.10;99.90;;;;;;4998694;28;20184;-90
2022/07/09 03:39:41;;;;;;;6.17;3.73;;;12.10;99.90;;;;;;4998919;28;20191;-89
2022/07/09 03:42:07;;;;;;;7.70;3.50;;;12.00;99.90;;;;;;4998650;28;20280;-89
2022/07/09 03:44:33;;;;;;;6.77;3.70;;;11.90;99.90;;;;;;5015014;28;20184;-89
2022/07/09 03:47:00;;;;;;;4.90;3.33;;;11.80;99.90;;;;;;5014768;28;20271;-89
2022/07/09 03:49:26;;;;;;;3.73;3.30;;;11.70;99.90;;;;;;4998819;28;20186;-89
2022/07/09 03:51:52;;;;;;;5.70;3.23;;;11.60;99.90;;;;;;4999097;28;20202;-89
2022/07/09 03:54:18;;;;;;;4.87;3.73;;;11.60;99.90;;;;;;5015638;28;20255;-89
2022/07/09 03:56:44;;;;;;;4.87;3.40;;;11.70;99.90;;;;;;5016059;28;20237;-89
2022/07/09 03:59:10;;;;;;;6.37;3.70;;;11.80;99.90;;;;;;5016027;28;20647;-89
2022/07/09 04:01:37;;;;;;;5.10;3.70;;;11.80;99.90;;;;;;5015204;28;20226;-89
2022/07/09 04:04:04;;;;;;;4.67;3.33;;;11.80;99.90;;;;;;5015363;28;20180;-89
2022/07/09 04:06:32;;;;;;;5.23;3.73;;;11.90;99.90;;;;;;5015127;28;20190;-90
2022/07/09 04:08:58;;;;;;;4.93;3.70;;;12.00;99.90;;;;;;5015174;28;20183;-89
2022/07/09 04:11:23;;;;;;;4.37;3.57;;;12.00;99.90;;;;;;5015564;28;20203;-89
2022/07/09 04:13:50;;;;;;;6.13;3.10;;;12.00;99.90;;;;;;4999728;28;20283;-89
2022/07/09 04:16:16;;;;;;;6.53;3.33;;;12.00;99.90;;;;;;4999545;28;20176;-89
2022/07/09 04:18:43;;;;;;;5.60;3.47;;;12.00;99.90;;;;;;5016202;28;20184;-89
2022/07/09 04:21:09;;;;;;;6.37;3.60;;;11.90;99.90;;;;;;5015284;28;20198;-89
2022/07/09 04:23:36;;;;;;;5.53;3.50;;;11.90;99.90;;;;;;5015944;28;20186;-90
2022/07/09 04:26:02;;;;;;;5.67;3.23;;;11.90;99.90;;;;;;5015239;28;20301;-89
2022/07/09 04:28:30;;;;;;;5.03;3.33;;;11.90;99.90;;;;;;5016339;28;20230;-89
2022/07/09 04:30:57;;;;;;;6.30;3.80;;;11.90;99.90;;;;;;4998928;28;20209;-89
2022/07/09 04:33:23;;;;;;;8.27;3.80;;;11.90;99.90;;;;;;5002604;28;20212;-89
2022/07/09 04:35:49;;;;;;;8.80;4.10;;;12.00;99.90;;;;;;4999466;28;20170;-89
2022/07/09 04:38:14;;;;;;;4.53;3.60;;;12.00;99.90;;;;;;5016210;28;20219;-89
2022/07/09 04:40:40;;;;;;;6.63;4.00;;;12.10;99.90;;;;;;5037237;28;20199;-90
2022/07/09 04:43:07;;;;;;;5.73;3.80;;;12.10;99.90;;;;;;5001928;28;20182;-89
2022/07/09 04:45:34;;;;;;;7.00;4.03;;;12.10;99.90;;;;;;4999783;28;20175;-90
2022/07/09 04:48:01;;;;;;;7.57;3.77;;;12.20;99.90;;;;;;5017180;28;20211;-89
2022/07/09 04:50:27;;;;;;;6.30;4.17;;;12.20;99.90;;;;;;5017136;28;20184;-89
2022/07/09 04:52:53;;;;;;;6.87;3.57;;;12.20;99.90;;;;;;5007577;28;20171;-89
2022/07/09 04:55:21;;;;;;;4.77;3.93;;;12.20;99.90;;;;;;5028738;28;20193;-89
2022/07/09 04:57:47;;;;;;;6.07;3.77;;;12.20;99.90;;;;;;5004259;28;20191;-90
2022/07/09 05:00:15;;;;;;;4.77;3.63;;;12.30;99.90;;;;;;5006945;28;20175;-89
2022/07/09 05:02:42;;;;;;;5.00;4.20;;;12.30;99.90;;;;;;5014187;28;20232;-89
2022/07/09 05:05:09;;;;;;;5.27;3.40;;;12.30;99.90;;;;;;5013698;28;20188;-89
2022/07/09 05:07:35;;;;;;;4.77;4.10;;;12.30;99.90;;;;;;4997607;28;20265;-89
2022/07/09 05:10:02;;;;;;;4.53;3.90;;;12.40;99.90;;;;;;5013891;28;20182;-89
2022/07/09 05:12:29;;;;;;;6.70;3.97;;;12.40;99.90;;;;;;4997484;28;20279;-89
2022/07/09 05:14:57;;;;;;;8.40;4.30;;;12.50;99.90;;;;;;4996793;28;20180;-89
2022/07/09 05:17:24;;;;;;;6.53;4.03;;;12.60;99.90;;;;;;5013882;28;20273;-90
2022/07/09 05:19:50;;;;;;;5.40;3.83;;;12.60;99.90;;;;;;5016720;28;20221;-89
2022/07/09 05:22:17;;;;;;;5.40;4.00;;;12.70;99.90;;;;;;5014040;28;20209;-89
2022/07/09 05:24:43;;;;;;;5.90;3.73;;;12.70;99.90;;;;;;5014633;28;20185;-89
2022/07/09 05:27:09;;;;;;;5.63;3.40;;;12.80;99.90;;;;;;5014891;28;20206;-90
2022/07/09 05:29:36;;;;;;;5.33;3.53;;;12.90;99.90;;;;;;5024093;28;20214;-90
2022/07/09 05:32:03;;;;;;;4.50;3.87;;;13.00;99.90;;;;;;5015058;28;20210;-90
2022/07/09 05:34:29;;;;;;;8.20;3.80;;;13.10;99.90;;;;;;4998230;28;20267;-90
2022/07/09 05:36:55;;;;;;;4.67;3.73;;;13.10;99.90;;;;;;5013254;28;20273;-88
2022/07/09 05:39:22;;;;;;;4.00;3.60;;;13.20;99.90;;;;;;5013896;28;20265;-85
2022/07/09 05:41:48;;;;;;;4.40;3.70;;;13.30;99.90;;;;;;5013264;28;20288;-89
2022/07/09 05:44:15;;;;;;;4.47;3.60;;;13.40;99.90;;;;;;5014857;28;20184;-89
2022/07/09 05:46:41;;;;;;;5.40;3.67;;;13.40;99.90;;;;;;5014809;28;20939;-89
2022/07/09 05:49:07;;;;;;;6.20;3.40;;;13.50;99.90;;;;;;5015608;28;20173;-89
2022/07/09 05:51:34;;;;;;;5.47;3.30;;;13.60;99.90;;;;;;5020228;28;20245;-89
2022/07/09 05:54:00;;;;;;;4.30;3.00;;;13.70;99.90;;;;;;5021906;28;20193;-89
2022/07/09 05:56:26;;;;;;;5.77;3.13;;;13.70;99.90;;;;;;5003263;28;20189;-88
2022/07/09 05:58:52;;;;;;;3.53;2.87;;;13.90;99.90;;;;;;5014488;28;20209;-89
2022/07/09 06:02:13;;;;;;;3.23;2.93;;;14.00;99.90;;;;;;5020161;28;20205;-88
2022/07/09 06:05:23;;;;;;;3.67;3.20;;;14.10;99.90;;;;;;5040255;28;20169;-93
2022/07/09 06:08:03;;;;;;;5.47;3.13;;;14.40;99.90;;;;;;5024661;28;20272;-91
2022/07/09 06:10:38;;;;;;;4.83;3.00;;;14.60;99.90;;;;;;5001351;28;20181;-89
2022/07/09 06:13:11;;;;;;;4.67;2.83;;;14.60;99.90;;;;;;5006111;28;20193;-91
2022/07/09 06:15:40;;;;;;;3.90;2.97;;;14.80;99.90;;;;;;5004405;28;20178;-91
2022/07/09 06:18:09;;;;;;;3.63;3.03;;;14.90;99.90;;;;;;5020253;28;20299;-89
2022/07/09 06:20:35;;;;;;;4.47;2.80;;;15.20;99.90;;;;;;5020098;28;20210;-89
2022/07/09 06:23:01;;;;;;;4.40;2.73;;;15.30;99.90;;;;;;5003292;28;20179;-89
2022/07/09 06:25:27;;;;;;;5.73;3.00;;;15.50;99.90;;;;;;5003157;28;20197;-89
2022/07/09 06:27:53;;;;;;;4.47;2.70;;;15.70;99.90;;;;;;5002718;28;20206;-89
2022/07/09 06:30:19;;;;;;;4.27;2.83;;;15.90;99.90;;;;;;5019315;28;20179;-89
2022/07/09 06:32:45;;;;;;;3.90;2.43;;;16.10;99.90;;;;;;5018833;28;20186;-89
2022/07/09 06:35:11;;;;;;;4.77;3.03;;;16.20;99.90;;;;;;5002521;28;20221;-89
2022/07/09 06:37:36;;;;;;;5.57;3.30;;;16.40;99.90;;;;;;5019079;28;20214;-89
2022/07/09 06:40:04;;;;;;;5.80;2.73;;;16.60;99.90;;;;;;5019121;28;20209;-90
2022/07/09 06:42:30;;;;;;;4.87;3.20;;;16.80;99.90;;;;;;5018928;28;20297;-89
2022/07/09 06:44:59;;;;;;;7.53;3.17;;;16.90;99.90;;;;;;5019279;28;20182;-89
2022/07/09 06:47:25;;;;;;;3.87;3.10;;;17.00;99.90;;;;;;5014750;28;20203;-89
2022/07/09 06:49:51;;;;;;;6.50;3.47;;;17.20;99.90;;;;;;5018840;28;20166;-90
2022/07/09 06:52:17;;;;;;;6.20;3.20;;;17.50;99.90;;;;;;5024047;28;20194;-90
2022/07/09 06:54:43;;;;;;;4.57;3.03;;;17.60;99.90;;;;;;5026847;28;20612;-92
2022/07/09 06:57:10;;;;;;;5.53;3.25;;;17.70;99.90;;;;;;5023880;28;20264;-90
2022/07/09 06:59:36;;;;;;;5.80;3.10;;;17.80;99.90;;;;;;5034298;28;20209;-91
2022/07/09 07:02:02;;;;;;;5.35;3.20;;;18.00;99.90;;;;;;5010237;28;20264;-91
2022/07/09 07:04:28;;;;;;;5.18;2.88;;;18.00;99.90;;;;;;5015708;28;20221;-90
2022/07/09 07:06:54;;;;;;;6.90;3.60;;;18.10;99.90;;;;;;5015395;28;20790;-90
2022/07/09 07:09:22;;;;;;;7.10;3.28;;;18.30;99.90;;;;;;5015475;28;20182;-91
2022/07/09 07:11:49;;;;;;;7.35;2.97;;;18.40;99.90;;;;;;5015278;28;20241;-90
2022/07/09 07:14:15;;;;;;;7.07;3.15;;;18.50;99.90;;;;;;5012176;28;20183;-90
2022/07/09 07:16:42;;;;;;;5.47;2.90;;;18.70;99.90;;;;;;5015774;28;20183;-92
2022/07/09 07:19:10;;;;;;;5.22;3.00;;;18.70;99.90;;;;;;5015764;28;20213;-92
2022/07/09 07:21:37;;;;;;;6.20;3.10;;;18.80;99.90;;;;;;5015649;28;20221;-92
2022/07/09 07:24:03;;;;;;;7.25;3.15;;;18.70;99.90;;;;;;4998759;28;20209;-91
2022/07/09 07:26:29;;;;;;;4.78;2.40;;;18.70;99.90;;;;;;5015511;28;20214;-91
2022/07/09 07:28:55;;;;;;;3.40;2.90;;;18.90;99.90;;;;;;4996731;28;20269;-92
2022/07/09 07:31:23;;;;;;;4.88;3.08;;;19.00;99.90;;;;;;5009828;28;20217;-92
2022/07/09 07:33:53;;;;;;;6.15;2.67;;;19.10;99.90;;;;;;5009150;28;20178;-92
2022/07/09 07:36:22;;;;;;;4.30;2.80;;;19.20;99.90;;;;;;5014719;28;20182;-92
2022/07/09 07:38:55;;;;;;;3.45;2.47;;;19.20;99.90;;;;;;5008886;28;20647;-91
2022/07/09 07:41:24;;;;;;;2.97;2.50;;;19.30;99.90;;;;;;5013502;28;20217;-92
2022/07/09 07:43:53;;;;;;;6.30;2.67;;;19.30;99.90;;;;;;5011063;28;20240;-90
2022/07/09 07:46:22;;;;;;;7.20;2.90;;;19.30;99.90;;;;;;5012168;28;20189;-91
2022/07/09 07:48:48;;;;;;;4.93;2.90;;;19.40;99.90;;;;;;5010124;28;20307;-91
2022/07/09 07:51:16;;;;;;;7.97;3.00;;;19.50;99.90;;;;;;5015218;28;20194;-91
2022/07/09 07:53:43;;;;;;;6.20;3.30;;;19.60;99.90;;;;;;5012080;28;20240;-91
2022/07/09 07:56:15;;;;;;;4.55;2.97;;;19.80;99.90;;;;;;5040338;28;20182;-92
2022/07/09 07:58:44;;;;;;;6.15;2.65;;;20.10;99.90;;;;;;5018279;28;20265;-92
2022/07/09 08:01:11;;;;;;;6.45;2.92;;;20.40;99.90;;;;;;5012117;28;20195;-91
2022/07/09 08:03:43;;;;;;;6.82;3.13;;;20.60;99.90;;;;;;5013927;28;20193;-91
2022/07/09 08:06:09;;;;;;;4.45;2.30;;;20.70;99.90;;;;;;5012093;28;20851;-91
2022/07/09 08:08:35;;;;;;;3.22;2.15;;;20.70;99.90;;;;;;5017059;28;20214;-91
2022/07/09 08:11:14;;;;;;;4.70;2.38;;;20.90;99.90;;;;;;5009759;28;20195;-91
2022/07/09 08:13:41;;;;;;;3.83;2.42;;;21.20;99.90;;;;;;5023478;28;20175;-90
2022/07/09 08:16:10;;;;;;;2.88;2.10;;;21.40;99.90;;;;;;5021366;28;20262;-89
2022/07/09 08:18:37;;;;;;;5.20;2.10;;;21.50;99.90;;;;;;5014993;28;20175;-88
2022/07/09 08:21:11;;;;;;;2.83;2.20;;;21.60;99.90;;;;;;5014304;28;20210;-88
2022/07/09 08:23:53;;;;;;;6.40;2.95;;;21.80;99.90;;;;;;4996717;28;20233;-87
2022/07/09 08:26:25;;;;;;;15.88;3.85;;;21.90;99.90;;;;;;5013014;28;20170;-86
2022/07/09 08:28:55;;;;;;;16.67;3.78;;;22.10;99.90;;;;;;5009463;28;20226;-86
2022/07/09 08:31:21;;;;;;;4.10;2.00;;;22.20;99.90;;;;;;5008732;28;20244;-86
2022/07/09 08:33:52;;;;;;;2.83;1.95;;;22.50;99.90;;;;;;5009709;28;20194;-86
2022/07/09 08:36:19;;;;;;;4.47;2.00;;;22.70;99.90;;;;;;4996136;28;20187;-86
2022/07/09 08:38:46;;;;;;;3.58;1.98;;;23.00;99.90;;;;;;5010077;28;20186;-86
2022/07/09 08:41:13;;;;;;;3.60;1.65;;;23.30;99.90;;;;;;5014057;28;20202;-88
2022/07/09 08:43:41;;;;;;;3.53;1.80;;;23.50;99.90;;;;;;5018123;28;20189;-88
2022/07/09 08:46:07;;;;;;;4.43;1.77;;;23.60;99.90;;;;;;5009703;28;20183;-88
2022/07/09 08:48:36;;;;;;;3.88;2.17;;;23.60;99.90;;;;;;4997071;28;20215;-88
2022/07/09 08:51:03;;;;;;;4.35;2.00;;;23.60;99.90;;;;;;4988411;28;20204;-89
2022/07/09 08:53:30;;;;;;;3.17;1.60;;;23.80;99.90;;;;;;5019942;28;20210;-91
2022/07/09 08:55:57;;;;;;;3.15;1.63;;;24.00;99.90;;;;;;5012165;28;20191;-92
2022/07/09 08:58:24;;;;;;;3.30;1.70;;;23.90;99.90;;;;;;5019513;28;20179;-91
2022/07/09 09:00:52;;;;;;;2.65;1.48;;;24.10;99.90;;;;;;5022538;28;20203;-91
2022/07/09 09:03:19;;;;;;;3.92;1.50;;;24.10;99.90;;;;;;5007122;28;20237;-92
2022/07/09 09:05:59;;;;;;;2.25;1.70;;;24.20;99.90;;;;;;5014295;28;20184;-92
2022/07/09 09:08:26;;;;;;;1.83;1.10;;;24.20;99.90;;;;;;5016920;28;20198;-92
2022/07/09 09:10:52;;;;;;;2.65;1.20;;;24.50;99.90;;;;;;5000621;28;20198;-91
2022/07/09 09:13:19;;;;;;;2.28;1.23;;;24.40;99.90;;;;;;5016380;28;20171;-92
2022/07/09 09:15:45;;;;;;;3.20;1.55;;;24.40;99.90;;;;;;5012528;28;20167;-92
2022/07/09 09:18:11;;;;;;;3.00;1.83;;;24.40;99.90;;;;;;5015274;28;20185;-91
2022/07/09 09:20:44;;;;;;;4.47;1.45;;;24.30;99.90;;;;;;5004946;28;20210;-91
2022/07/09 09:23:16;;;;;;;2.67;1.40;;;24.40;99.90;;;;;;5017484;28;20167;-91
2022/07/09 09:25:42;;;;;;;2.60;1.50;;;24.30;99.90;;;;;;5014144;28;20555;-91
2022/07/09 09:28:09;;;;;;;1.98;1.45;;;24.30;99.90;;;;;;5015187;28;20269;-92
2022/07/09 09:30:43;;;;;;;3.72;1.58;;;24.50;99.90;;;;;;5011631;28;20222;-91
2022/07/09 09:33:16;;;;;;;5.35;1.48;;;24.70;99.90;;;;;;5008701;28;20269;-91
2022/07/09 09:35:44;;;;;;;4.95;1.55;;;24.80;99.90;;;;;;5015057;28;20234;-92
2022/07/09 09:38:10;;;;;;;6.70;1.90;;;25.10;99.90;;;;;;5014234;28;20186;-92
2022/07/09 09:40:45;;;;;;;7.65;2.30;;;25.30;99.90;;;;;;5012193;28;20202;-92
2022/07/09 09:43:13;;;;;;;3.28;1.35;;;25.20;99.50;;;;;;5024611;28;20174;-91
2022/07/09 09:45:40;;;;;;;1.33;1.20;;;25.40;99.80;;;;;;5014909;28;20197;-92
2022/07/09 09:48:18;;;;;;;3.85;1.42;;;25.50;99.20;;;;;;5011052;28;20209;-91
2022/07/09 09:50:48;;;;;;;2.85;1.33;;;25.80;98.70;;;;;;5017725;28;20190;-92
2022/07/09 09:53:15;;;;;;;5.35;1.90;;;25.70;98.30;;;;;;5013367;28;20178;-91
2022/07/09 09:55:42;;;;;;;3.20;1.50;;;25.70;99.40;;;;;;5019228;28;20205;-92
2022/07/09 09:58:10;;;;;;;1.95;1.20;;;25.50;98.00;;;;;;5013128;28;20262;-92
2022/07/09 10:00:36;;;;;;;2.33;1.15;;;25.40;98.40;;;;;;5012480;28;20209;-91
2022/07/09 10:03:03;;;;;;;3.88;1.33;;;25.30;99.70;;;;;;4996262;28;20182;-91
2022/07/09 10:05:30;;;;;;;2.40;1.30;;;25.60;98.60;;;;;;5008991;28;20190;-91
2022/07/09 10:07:56;;;;;;;2.88;1.50;;;25.90;98.00;;;;;;5008543;28;20214;-91
2022/07/09 10:10:22;;;;;;;3.28;1.40;;;26.20;97.30;;;;;;5013127;28;20213;-92
2022/07/09 10:12:48;;;;;;;13.18;2.85;;;26.10;96.20;;;;;;5012837;28;20217;-92
2022/07/09 10:15:26;;;;;;;2.55;1.10;;;26.30;97.20;;;;;;5013386;28;20187;-92
2022/07/09 10:17:53;;;;;;;1.95;1.08;;;26.40;95.90;;;;;;5007969;28;20182;-92
2022/07/09 10:20:33;;;;;;;2.67;1.02;;;26.50;96.40;;;;;;5014242;28;20187;-92
2022/07/09 10:23:00;;;;;;;1.90;1.00;;;26.80;94.80;;;;;;5016059;28;20253;-92
2022/07/09 10:25:31;;;;;;;2.45;1.20;;;27.10;95.00;;;;;;4998108;28;20171;-91
2022/07/09 10:27:57;;;;;;;1.58;1.17;;;27.10;95.30;;;;;;5012918;28;20268;-92
2022/07/09 10:30:35;;;;;;;3.08;1.30;;;27.30;94.60;;;;;;5012078;28;20178;-91
2022/07/09 10:33:12;;;;;;;2.45;1.20;;;27.20;94.20;;;;;;5012504;28;20178;-92
2022/07/09 10:35:47;;;;;;;2.15;1.05;;;27.30;94.20;;;;;;5010005;28;20246;-91
2022/07/09 10:38:14;;;;;;;1.58;1.00;;;26.90;94.60;;;;;;5024326;28;20206;-91
2022/07/09 10:40:48;;;;;;;1.75;1.10;;;27.10;93.90;;;;;;5010684;28;20261;-92
2022/07/09 10:43:15;;;;;;;3.25;1.00;;;26.90;93.70;;;;;;5009180;28;20178;-92
2022/07/09 10:45:42;;;;;;;2.00;1.40;;;27.00;93.10;;;;;;5021803;28;20182;-92
2022/07/09 10:48:13;;;;;;;3.78;1.40;;;27.30;94.00;;;;;;5008439;28;20202;-92
2022/07/09 10:50:41;;;;;;;2.60;1.38;;;27.40;93.80;;;;;;5052214;22;20232;-37
2022/07/09 10:53:08;;;;;;;2.03;1.10;;;27.60;94.60;;;;;;5056333;28;20177;-39
2022/07/09 10:55:35;;;;;;;2.92;1.13;;;27.70;93.60;;;;;;5050260;28;20177;-37
2022/07/09 10:58:07;;;;;;;3.65;1.60;;;28.00;93.90;;;;;;5076173;28;20226;-39
2022/07/09 11:00:34;;;;;;;3.05;1.30;;;28.10;93.70;;;;;;5060712;28;20173;-38
2022/07/09 11:03:05;;;;;;;3.63;1.20;;;28.30;93.60;;;;;;5038803;28;20196;-38
2022/07/09 11:06:32;;;;;;;3.00;1.20;;;28.40;92.50;;;;;;5062642;23;20235;-90
2022/07/09 11:09:44;;;;;;;1.50;1.02;;;28.10;93.30;;;;;;4958998;28;20252;-91
2022/07/09 11:12:09;;;;;;;1.70;1.00;;;28.10;93.30;;;;;;4970654;28;20234;-91
2022/07/09 11:14:43;;;;;;;1.75;1.25;;;28.10;92.60;;;;;;5035490;28;20182;-89
2022/07/09 11:17:15;;;;;;;2.38;1.10;;;27.80;92.90;;;;;;5038748;28;20185;-90
2022/07/09 11:19:46;;;;;;;1.30;1.00;;;28.00;93.10;;;;;;5052699;28;20182;-89
2022/07/09 11:22:18;;;;;;;2.72;1.33;;;28.00;92.80;;;;;;5051896;28;20205;-85
2022/07/09 11:24:55;;;;;;;1.88;1.40;;;28.10;93.20;;;;;;5055973;28;20234;-87
2022/07/09 11:27:25;;;;;;;1.90;1.10;;;27.90;93.20;;;;;;5053219;28;20726;-91
2022/07/09 11:30:03;;;;;;;1.20;1.02;;;27.90;93.20;;;;;;5034495;28;20221;-91
2022/07/09 11:32:30;;;;;;;2.67;1.30;;;28.20;93.50;;;;;;5048707;28;20247;-91
2022/07/09 11:34:56;;;;;;;1.73;1.10;;;28.30;92.20;;;;;;5057471;28;20260;-91
2022/07/09 11:37:26;;;;;;;2.10;1.20;;;28.50;92.50;;;;;;5056973;28;20324;-90
2022/07/09 11:39:53;;;;;;;1.35;1.25;;;28.60;92.10;;;;;;5057064;28;20665;-90
2022/07/09 11:42:20;;;;;;;1.77;1.15;;;28.50;92.60;;;;;;5072903;28;20192;-90
2022/07/09 11:44:58;;;;;;;3.10;1.20;;;27.90;92.50;;;;;;5060840;28;20225;-90
2022/07/09 11:47:36;;;;;;;2.00;1.10;;;27.90;93.00;;;;;;5055030;28;20209;-90
2022/07/09 11:50:32;;;;;;;1.67;1.20;;;28.00;93.70;;;;;;5039944;28;20173;-90
2022/07/09 11:52:58;;;;;;;2.55;1.25;;;27.80;93.80;;;;;;5042395;28;20238;-90
2022/07/09 11:55:30;;;;;;;1.50;1.00;;;28.00;92.90;;;;;;5038317;28;20169;-91
2022/07/09 11:57:58;;;;;;;1.42;1.20;;;27.70;91.70;;;;;;5038572;28;20216;-91
2022/07/09 12:00:28;;;;;;;2.08;1.33;;;27.50;91.70;;;;;;5039470;28;20204;-91
2022/07/09 12:02:57;;;;;;;3.08;1.30;;;27.40;93.00;;;;;;5040453;28;20264;-90
2022/07/09 12:05:32;;;;;;;1.63;1.30;;;27.40;93.10;;;;;;5040017;28;20255;-90
2022/07/09 12:08:01;;;;;;;1.60;1.20;;;27.40;93.80;;;;;;5054157;28;20193;-90
2022/07/09 12:10:32;;;;;;;3.22;1.45;;;27.20;94.10;;;;;;5038588;28;20177;-91
2022/07/09 12:12:59;;;;;;;1.65;1.08;;;27.20;93.60;;;;;;5055350;28;20177;-90
2022/07/09 12:15:26;;;;;;;1.55;1.10;;;27.30;93.50;;;;;;5039857;28;20169;-91
2022/07/09 12:17:54;;;;;;;2.30;1.17;;;27.30;93.20;;;;;;5040550;28;20185;-90
2022/07/09 12:20:21;;;;;;;2.08;1.35;;;27.50;94.60;;;;;;5036689;28;20193;-91
2022/07/09 12:22:50;;;;;;;2.60;1.30;;;27.60;94.30;;;;;;5053676;28;20207;-90
2022/07/09 12:25:17;;;;;;;1.80;1.33;;;27.80;94.80;;;;;;5056654;28;20173;-90
2022/07/09 12:27:43;;;;;;;3.10;1.27;;;27.80;94.70;;;;;;5040029;28;20251;-90
2022/07/09 12:30:09;;;;;;;1.65;1.30;;;27.70;92.90;;;;;;5046773;28;20174;-89
2022/07/09 12:32:35;;;;;;;1.85;1.08;;;27.90;93.50;;;;;;5040557;28;20197;-91
2022/07/09 12:35:02;;;;;;;1.90;1.23;;;28.30;94.50;;;;;;5071261;28;20217;-90
2022/07/09 12:37:28;;;;;;;1.52;1.10;;;28.50;92.30;;;;;;5042582;28;20177;-90
2022/07/09 12:39:54;;;;;;;2.00;1.33;;;28.70;92.80;;;;;;5039877;28;20177;-90
2022/07/09 12:42:20;;;;;;;2.50;1.40;;;28.80;91.70;;;;;;5039718;28;20194;-91
2022/07/09 12:44:52;;;;;;;3.95;1.65;;;28.40;91.60;;;;;;5040616;28;20200;-91
2022/07/09 12:47:18;;;;;;;2.47;1.33;;;28.70;93.00;;;;;;5039796;28;20288;-91
2022/07/09 12:49:44;;;;;;;2.42;1.50;;;29.00;92.30;;;;;;5039930;28;20181;-91
2022/07/09 12:52:10;;;;;;;1.67;1.27;;;29.40;92.70;;;;;;5039879;28;20193;-91